Time;durP1;ratioP1;P1;durP2;ratioP2;P2;SDS_P1;SDS_P2;PMS_P1;PMS_P2;Temp;Humidity;BMP_temperature;BMP_pressure;BME280_temperature;BME280_humidity;BME280_pressure;Samples;Min_cycle;Max_cycle;Signal;HPM_P1;HPM_P2
2023/03/10 00:01:00;;;;;;;;;;;;;;;3.07;100.00;98749.78;5052905;28;19960;-76
2023/03/10 00:03:25;;;;;;;;;;;;;;;3.04;100.00;98750.03;5053321;28;19921;-76
2023/03/10 00:05:51;;;;;;;;;;;;;;;3.00;100.00;98754.72;5051040;28;19927;-76
2023/03/10 00:08:16;;;;;;;;;;;;;;;3.03;100.00;98751.84;5053466;28;19927;-76
2023/03/10 00:10:41;;;;;;;;;;;;;;;3.00;100.00;98749.44;5050818;28;19924;-76
2023/03/10 00:13:06;;;;;;;;;;;;;;;3.05;100.00;98746.41;5054670;28;19924;-76
2023/03/10 00:15:31;;;;;;;;;;;;;;;2.96;100.00;98748.84;5054360;28;19920;-77
2023/03/10 00:17:57;;;;;;;;;;;;;;;2.94;100.00;98745.47;5051028;28;21333;-78
2023/03/10 00:20:22;;;;;;;;;;;;;;;2.91;100.00;98735.09;5036271;28;19966;-77
2023/03/10 00:22:47;;;;;;;;;;;;;;;2.90;100.00;98736.06;5058964;28;19931;-77
2023/03/10 00:25:14;;;;;;;;;;;;;;;2.91;100.00;98736.94;5052754;28;19920;-77
2023/03/10 00:27:39;;;;;;;;;;;;;;;2.90;100.00;98720.16;5052225;28;19978;-77
2023/03/10 00:30:05;;;;;;;;;;;;;;;2.89;100.00;98715.00;5056542;28;20330;-77
2023/03/10 00:32:30;;;;;;;;;;;;;;;2.89;100.00;98715.00;5052576;28;19924;-77
2023/03/10 00:34:55;;;;;;;;;;;;;;;2.90;100.00;98727.28;5056128;28;19925;-78
2023/03/10 00:37:20;;;;;;;;;;;;;;;2.86;100.00;98718.72;5053338;28;19959;-77
2023/03/10 00:39:49;;;;;;;;;;;;;;;2.78;100.00;98727.28;5054594;28;20112;-77
2023/03/10 00:42:14;;;;;;;;;;;;;;;2.67;100.00;98714.88;5056249;28;19971;-77
2023/03/10 00:44:39;;;;;;;;;;;;;;;2.80;100.00;98721.84;5050309;28;20120;-77
2023/03/10 00:47:05;;;;;;;;;;;;;;;2.84;100.00;98728.59;5053528;28;19928;-77
2023/03/10 00:49:30;;;;;;;;;;;;;;;2.88;100.00;98727.41;5055281;28;19967;-76
2023/03/10 00:51:55;;;;;;;;;;;;;;;2.93;100.00;98727.00;5041681;28;19924;-77
2023/03/10 00:54:20;;;;;;;;;;;;;;;2.97;100.00;98724.00;5052158;28;19950;-77
2023/03/10 00:56:45;;;;;;;;;;;;;;;3.03;100.00;98735.09;5052674;28;19927;-77
2023/03/10 00:59:11;;;;;;;;;;;;;;;3.03;100.00;98732.44;5051676;28;19928;-77
2023/03/10 01:01:38;;;;;;;;;;;;;;;3.09;100.00;98735.44;5052279;28;20020;-76
2023/03/10 01:04:08;;;;;;;;;;;;;;;3.11;100.00;98730.00;5046684;28;19927;-76
2023/03/10 01:06:33;;;;;;;;;;;;;;;3.12;100.00;98729.03;5056091;28;19925;-76
2023/03/10 01:08:58;;;;;;;;;;;;;;;3.11;100.00;98741.47;5054280;28;20358;-77
2023/03/10 01:11:24;;;;;;;;;;;;;;;3.11;100.00;98728.22;5055847;28;20019;-77
2023/03/10 01:13:50;;;;;;;;;;;;;;;3.11;100.00;98727.34;5057052;28;19924;-77
2023/03/10 01:16:15;;;;;;;;;;;;;;;3.11;100.00;98727.34;5058764;28;19969;-77
2023/03/10 01:18:42;;;;;;;;;;;;;;;3.16;100.00;98730.47;5052945;28;19920;-77
2023/03/10 01:21:09;;;;;;;;;;;;;;;3.07;100.00;98733.84;5039695;28;20296;-77
2023/03/10 01:23:34;;;;;;;;;;;;;;;3.13;100.00;98723.63;5055581;28;19934;-77
2023/03/10 01:25:59;;;;;;;;;;;;;;;3.15;100.00;98723.50;5055552;28;19920;-77
2023/03/10 01:28:25;;;;;;;;;;;;;;;3.07;100.00;98712.66;5054187;28;20002;-77
2023/03/10 01:30:50;;;;;;;;;;;;;;;3.21;100.00;98722.13;5055680;28;19975;-77
2023/03/10 01:33:16;;;;;;;;;;;;;;;3.19;100.00;98726.72;5056361;28;19932;-77
2023/03/10 01:35:41;;;;;;;;;;;;;;;3.21;100.00;98723.00;5054368;28;19947;-77
2023/03/10 01:38:07;;;;;;;;;;;;;;;3.26;100.00;98712.88;5054131;28;20378;-77
2023/03/10 01:40:32;;;;;;;;;;;;;;;3.29;100.00;98706.44;5053034;28;20591;-77
2023/03/10 01:43:16;;;;;;;;;;;;;;;3.27;100.00;98706.59;5053573;28;20214;-77
2023/03/10 01:45:44;;;;;;;;;;;;;;;3.27;100.00;98705.72;5054246;28;20061;-77
2023/03/10 01:48:10;;;;;;;;;;;;;;;3.28;100.00;98700.31;5057242;28;19985;-77
2023/03/10 01:50:36;;;;;;;;;;;;;;;3.33;100.00;98701.72;5055346;28;19935;-76
2023/03/10 01:53:01;;;;;;;;;;;;;;;3.36;100.00;98696.19;5050341;28;19920;-77
2023/03/10 01:55:28;;;;;;;;;;;;;;;3.39;100.00;98695.94;5050890;28;19925;-77
2023/03/10 01:57:54;;;;;;;;;;;;;;;3.40;100.00;98693.16;5052442;28;19943;-77
2023/03/10 02:00:19;;;;;;;;;;;;;;;3.37;100.00;98700.50;5036664;28;20653;-77
2023/03/10 02:03:08;;;;;;;;;;;;;;;3.43;100.00;98686.75;5050692;28;19917;-76
2023/03/10 02:05:33;;;;;;;;;;;;;;;3.42;100.00;98685.94;5050260;28;19959;-77
2023/03/10 02:07:59;;;;;;;;;;;;;;;3.47;100.00;98687.31;5052542;28;20039;-77
2023/03/10 02:10:24;;;;;;;;;;;;;;;3.45;100.00;98682.16;5047709;28;20438;-77
2023/03/10 02:12:49;;;;;;;;;;;;;;;3.44;100.00;98686.59;5053030;28;19917;-77
2023/03/10 02:15:15;;;;;;;;;;;;;;;3.44;100.00;98691.91;5051464;28;19963;-77
2023/03/10 02:17:41;;;;;;;;;;;;;;;3.49;100.00;98685.38;5052516;28;19921;-77
2023/03/10 02:20:09;;;;;;;;;;;;;;;3.49;100.00;98678.28;5052956;28;19935;-77
2023/03/10 02:22:35;;;;;;;;;;;;;;;3.47;100.00;98676.72;5052143;28;20324;-77
2023/03/10 02:25:04;;;;;;;;;;;;;;;3.52;100.00;98679.84;5048334;28;19995;-78
2023/03/10 02:27:30;;;;;;;;;;;;;;;3.53;100.00;98684.19;5051504;28;19924;-77
2023/03/10 02:30:01;;;;;;;;;;;;;;;3.50;100.00;98685.28;5050509;28;20467;-78
2023/03/10 02:32:27;;;;;;;;;;;;;;;3.47;100.00;98685.53;5052811;28;19925;-77
2023/03/10 02:34:52;;;;;;;;;;;;;;;3.54;100.00;98683.22;5051892;28;20341;-77
2023/03/10 02:37:18;;;;;;;;;;;;;;;3.55;100.00;98676.94;5052812;28;19920;-77
2023/03/10 02:39:44;;;;;;;;;;;;;;;3.63;100.00;98676.28;5050117;28;19959;-77
2023/03/10 02:42:09;;;;;;;;;;;;;;;3.65;100.00;98672.56;5050271;28;19924;-77
2023/03/10 02:44:35;;;;;;;;;;;;;;;3.63;100.00;98666.53;5057659;28;19924;-78
2023/03/10 02:47:00;;;;;;;;;;;;;;;3.63;100.00;98663.00;5039886;28;20024;-77
2023/03/10 02:49:25;;;;;;;;;;;;;;;3.63;100.00;98668.31;5055628;28;19965;-78
2023/03/10 02:51:50;;;;;;;;;;;;;;;3.64;100.00;98662.91;5042682;28;19955;-77
2023/03/10 02:54:15;;;;;;;;;;;;;;;3.62;100.00;98658.69;5056490;28;19925;-77
2023/03/10 02:56:41;;;;;;;;;;;;;;;3.63;100.00;98649.75;5050933;28;19948;-78
2023/03/10 02:59:07;;;;;;;;;;;;;;;3.65;100.00;98653.97;5053906;28;19956;-77
2023/03/10 03:01:32;;;;;;;;;;;;;;;3.64;100.00;98646.13;5052698;28;20270;-77
2023/03/10 03:03:58;;;;;;;;;;;;;;;3.66;100.00;98641.53;5057477;28;20347;-76
2023/03/10 03:06:23;;;;;;;;;;;;;;;3.63;100.00;98644.44;5053600;28;19968;-77
2023/03/10 03:08:48;;;;;;;;;;;;;;;3.59;100.00;98639.38;5050976;28;19920;-77
2023/03/10 03:11:14;;;;;;;;;;;;;;;3.63;100.00;98629.38;5049798;28;19924;-78
2023/03/10 03:13:39;;;;;;;;;;;;;;;3.58;100.00;98634.22;5058226;28;19921;-78
2023/03/10 03:16:05;;;;;;;;;;;;;;;3.59;100.00;98639.38;5054615;28;20374;-77
2023/03/10 03:18:30;;;;;;;;;;;;;;;3.56;100.00;98626.41;5051935;28;19956;-77
2023/03/10 03:20:56;;;;;;;;;;;;;;;3.57;100.00;98633.38;5052718;28;20032;-78
2023/03/10 03:23:21;;;;;;;;;;;;;;;3.57;100.00;98630.75;5056116;28;19927;-77
2023/03/10 03:25:46;;;;;;;;;;;;;;;3.60;100.00;98629.63;5050854;28;19925;-77
2023/03/10 03:28:11;;;;;;;;;;;;;;;3.53;100.00;98628.44;5055552;28;19930;-77
2023/03/10 03:30:37;;;;;;;;;;;;;;;3.56;100.00;98634.38;5052198;28;20351;-77
2023/03/10 03:33:03;;;;;;;;;;;;;;;3.60;100.00;98627.81;5053492;28;20027;-77
2023/03/10 03:35:29;;;;;;;;;;;;;;;3.63;100.00;98632.03;5051247;28;19935;-77
2023/03/10 03:37:55;;;;;;;;;;;;;;;3.66;100.00;98628.25;5053103;28;19924;-77
2023/03/10 03:40:20;;;;;;;;;;;;;;;3.69;100.00;98626.22;5053756;28;19943;-78
2023/03/10 03:42:46;;;;;;;;;;;;;;;3.73;100.00;98629.44;5054955;28;19932;-77
2023/03/10 03:45:12;;;;;;;;;;;;;;;3.72;100.00;98620.63;5056055;28;20453;-77
2023/03/10 03:47:38;;;;;;;;;;;;;;;3.70;100.00;98622.59;5034975;28;19943;-77
2023/03/10 03:50:03;;;;;;;;;;;;;;;3.72;100.00;98625.09;5055717;28;20752;-78
2023/03/10 03:52:28;;;;;;;;;;;;;;;3.70;100.00;98622.59;5057691;28;19916;-78
2023/03/10 03:54:54;;;;;;;;;;;;;;;3.75;100.00;98620.34;5062125;28;19916;-77
2023/03/10 03:57:19;;;;;;;;;;;;;;;3.68;100.00;98613.91;5058361;28;19971;-77
2023/03/10 03:59:44;;;;;;;;;;;;;;;3.68;100.00;98619.22;5045075;28;20345;-78
2023/03/10 04:02:09;;;;;;;;;;;;;;;3.72;100.00;98614.47;5059520;28;19920;-78
2023/03/10 04:04:35;;;;;;;;;;;;;;;3.74;100.00;98610.72;5041106;28;19958;-77
2023/03/10 04:07:00;;;;;;;;;;;;;;;3.74;100.00;98615.19;5041258;28;20340;-78
2023/03/10 04:09:26;;;;;;;;;;;;;;;3.75;100.00;98622.19;5037697;28;20379;-77
2023/03/10 04:11:51;;;;;;;;;;;;;;;3.78;100.00;98607.78;5036626;28;20341;-78
2023/03/10 04:14:16;;;;;;;;;;;;;;;3.79;100.00;98620.94;5055272;28;19938;-78
2023/03/10 04:16:41;;;;;;;;;;;;;;;3.83;100.00;98616.22;5052473;28;19951;-77
2023/03/10 04:19:06;;;;;;;;;;;;;;;3.72;100.00;98595.91;5057762;28;19924;-77
2023/03/10 04:21:32;;;;;;;;;;;;;;;3.84;100.00;98617.91;5053136;28;20022;-77
2023/03/10 04:23:58;;;;;;;;;;;;;;;3.81;100.00;98613.69;5037311;28;19920;-77
2023/03/10 04:26:23;;;;;;;;;;;;;;;3.78;100.00;98607.78;5036522;28;20029;-77
2023/03/10 04:28:48;;;;;;;;;;;;;;;3.80;100.00;98605.84;5039633;28;19920;-78
2023/03/10 04:31:14;;;;;;;;;;;;;;;3.83;100.00;98608.25;5052345;28;19921;-77
2023/03/10 04:33:40;;;;;;;;;;;;;;;3.86;100.00;98605.34;5051371;28;20260;-77
2023/03/10 04:36:05;;;;;;;;;;;;;;;3.85;100.00;98608.97;5051970;28;19935;-77
2023/03/10 04:38:30;;;;;;;;;;;;;;;3.85;100.00;98606.31;5054034;28;19926;-77
2023/03/10 04:40:57;;;;;;;;;;;;;;;3.87;100.00;98605.19;5036575;28;19956;-77
2023/03/10 04:43:22;;;;;;;;;;;;;;;3.82;100.00;98598.59;5054817;28;19940;-77
2023/03/10 04:45:47;;;;;;;;;;;;;;;3.90;100.00;98598.78;5037864;28;20072;-77
2023/03/10 04:48:13;;;;;;;;;;;;;;;3.90;100.00;98604.94;5052071;28;19920;-77
2023/03/10 04:50:38;;;;;;;;;;;;;;;3.93;100.00;98601.19;5037230;28;19932;-77
2023/03/10 04:53:03;;;;;;;;;;;;;;;3.95;100.00;98604.56;5039435;28;19931;-77
2023/03/10 04:55:28;;;;;;;;;;;;;;;3.99;100.00;98594.50;5055731;28;20469;-77
2023/03/10 04:57:53;;;;;;;;;;;;;;;4.02;100.00;98587.09;5057287;28;19973;-77
2023/03/10 05:00:19;;;;;;;;;;;;;;;4.00;100.00;98588.22;5052407;28;19923;-77
2023/03/10 05:02:44;;;;;;;;;;;;;;;4.00;100.00;98588.22;5056240;28;19920;-77
2023/03/10 05:05:09;;;;;;;;;;;;;;;3.99;100.00;98582.06;5037959;28;19959;-77
2023/03/10 05:07:35;;;;;;;;;;;;;;;3.95;100.00;98585.97;5055078;28;19920;-77
2023/03/10 05:10:00;;;;;;;;;;;;;;;3.90;100.00;98582.88;5051464;28;19928;-77
2023/03/10 05:12:25;;;;;;;;;;;;;;;3.90;100.00;98581.03;5036699;28;20449;-76
2023/03/10 05:14:50;;;;;;;;;;;;;;;3.92;100.00;98580.91;5054620;28;20188;-77
2023/03/10 05:17:16;;;;;;;;;;;;;;;3.93;100.00;98579.94;5052113;28;20365;-76
2023/03/10 05:19:41;;;;;;;;;;;;;;;3.93;100.00;98582.59;5055635;28;19956;-77
2023/03/10 05:22:06;;;;;;;;;;;;;;;3.93;100.00;98579.94;5041562;28;20432;-76
2023/03/10 05:24:32;;;;;;;;;;;;;;;3.93;100.00;98573.78;5055785;28;19925;-76
2023/03/10 05:26:57;;;;;;;;;;;;;;;3.86;100.00;98576.13;5035211;28;20254;-76
2023/03/10 05:29:22;;;;;;;;;;;;;;;3.84;100.00;98570.94;5055257;28;19920;-76
2023/03/10 05:31:48;;;;;;;;;;;;;;;3.78;100.00;98567.97;5055265;28;20423;-76
2023/03/10 05:34:13;;;;;;;;;;;;;;;3.81;100.00;98573.88;5055173;28;20587;-77
2023/03/10 05:36:39;;;;;;;;;;;;;;;3.83;100.00;98579.91;5055138;28;19924;-76
2023/03/10 05:39:05;;;;;;;;;;;;;;;3.88;100.00;98575.00;5054378;28;19921;-76
2023/03/10 05:41:30;;;;;;;;;;;;;;;3.88;100.00;98575.00;5054570;28;19924;-76
2023/03/10 05:43:55;;;;;;;;;;;;;;;3.92;100.00;98577.41;5055431;28;19920;-77
2023/03/10 05:46:20;;;;;;;;;;;;;;;3.94;100.00;98580.78;5053379;28;19920;-77
2023/03/10 05:48:46;;;;;;;;;;;;;;;3.97;100.00;98583.16;5053960;28;19925;-77
2023/03/10 05:51:11;;;;;;;;;;;;;;;3.93;100.00;98584.41;5055999;28;20379;-77
2023/03/10 05:53:36;;;;;;;;;;;;;;;3.92;100.00;98585.38;5035324;28;20007;-77
2023/03/10 05:56:06;;;;;;;;;;;;;;;3.97;100.00;98601.75;5052051;28;19946;-77
2023/03/10 05:58:31;;;;;;;;;;;;;;;3.97;100.00;98599.97;5055744;28;19920;-76
2023/03/10 06:00:56;;;;;;;;;;;;;;;4.13;100.00;98604.75;5050803;28;19925;-77
2023/03/10 06:03:22;;;;;;;;;;;;;;;4.11;100.00;98606.69;5040945;28;19924;-77
2023/03/10 06:05:47;;;;;;;;;;;;;;;4.10;100.00;98596.22;5055531;28;20464;-77
2023/03/10 06:08:12;;;;;;;;;;;;;;;4.14;100.00;98601.13;5051053;28;19920;-76
2023/03/10 06:10:38;;;;;;;;;;;;;;;4.05;100.00;98588.66;5052793;28;20303;-76
2023/03/10 06:13:03;;;;;;;;;;;;;;;4.07;100.00;98596.47;5055954;28;20306;-76
2023/03/10 06:15:29;;;;;;;;;;;;;;;4.17;100.00;98603.50;5045363;28;19935;-76
2023/03/10 06:17:54;;;;;;;;;;;;;;;4.00;100.00;98606.81;5055821;28;20286;-76
2023/03/10 06:20:19;;;;;;;;;;;;;;;3.83;100.00;98590.53;5052571;28;20357;-77
2023/03/10 06:22:44;;;;;;;;;;;;;;;3.86;100.00;98600.03;5056121;28;19924;-77
2023/03/10 06:25:09;;;;;;;;;;;;;;;3.86;100.00;98590.22;5037548;28;20379;-76
2023/03/10 06:27:35;;;;;;;;;;;;;;;3.85;100.00;98595.69;5053087;28;19924;-77
2023/03/10 06:30:00;;;;;;;;;;;;;;;3.89;100.00;98599.75;5041262;28;20046;-77
2023/03/10 06:32:27;;;;;;;;;;;;;;;3.86;100.00;98600.84;5055507;28;21536;-76
2023/03/10 06:34:52;;;;;;;;;;;;;;;3.85;100.00;98608.97;5052836;28;19924;-76
2023/03/10 06:37:17;;;;;;;;;;;;;;;3.80;100.00;98606.72;5049868;28;19920;-76
2023/03/10 06:39:43;;;;;;;;;;;;;;;3.83;100.00;98602.94;5055131;28;19920;-76
2023/03/10 06:42:08;;;;;;;;;;;;;;;3.83;100.00;98598.50;5056233;28;19920;-76
2023/03/10 06:44:33;;;;;;;;;;;;;;;3.81;100.00;98604.88;5054857;28;19920;-77
2023/03/10 06:46:59;;;;;;;;;;;;;;;3.76;100.00;98602.63;5053724;28;19920;-76
2023/03/10 06:49:29;;;;;;;;;;;;;;;3.77;100.00;98606.97;5053151;28;20382;-76
2023/03/10 06:51:54;;;;;;;;;;;;;;;3.77;100.00;98608.75;5055618;28;19958;-76
2023/03/10 06:54:21;;;;;;;;;;;;;;;3.83;100.00;98611.75;5047619;28;20680;-76
2023/03/10 06:56:46;;;;;;;;;;;;;;;3.88;100.00;98609.53;5043027;28;19931;-76
2023/03/10 06:59:12;;;;;;;;;;;;;;;3.89;100.00;98613.03;5044177;28;19920;-76
2023/03/10 07:01:37;;;;;;;;;;;;;;;3.93;100.00;98621.56;5038166;28;19931;-77
2023/03/10 07:04:02;;;;;;;;;;;;;;;4.00;100.00;98623.56;5051612;28;19971;-77
2023/03/10 07:06:28;;;;;;;;;;;;;;;4.04;100.00;98622.31;5031786;28;20024;-76
2023/03/10 07:08:53;;;;;;;;;;;;;;;4.09;100.00;98624.59;5045389;28;20021;-76
2023/03/10 07:11:19;;;;;;;;;;;;;;;4.13;100.00;98630.47;5044278;28;20446;-76
2023/03/10 07:13:44;;;;;;;;;;;;;;;4.16;100.00;98624.91;5053375;28;19920;-77
2023/03/10 07:16:09;;;;;;;;;;;;;;;4.23;100.00;98625.22;5056316;28;19944;-76
2023/03/10 07:18:34;;;;;;;;;;;;;;;4.29;100.00;98627.34;5054831;28;19921;-76
2023/03/10 07:21:00;;;;;;;;;;;;;;;4.30;100.00;98635.16;5053928;28;19921;-76
2023/03/10 07:23:25;;;;;;;;;;;;;;;4.44;100.00;98644.59;5052609;28;20292;-77
2023/03/10 07:25:51;;;;;;;;;;;;;;;4.46;100.00;98641.81;5053303;28;19920;-76
2023/03/10 07:28:16;;;;;;;;;;;;;;;4.41;100.00;98644.03;5052209;28;19925;-76
2023/03/10 07:30:41;;;;;;;;;;;;;;;4.35;100.00;98643.59;5053635;28;20007;-77
2023/03/10 07:33:07;;;;;;;;;;;;;;;4.39;100.00;98651.28;5051895;28;20516;-76
2023/03/10 07:35:32;;;;;;;;;;;;;;;4.45;100.00;98653.41;5054653;28;19924;-76
2023/03/10 07:37:57;;;;;;;;;;;;;;;4.37;100.00;98655.91;5058941;28;19921;-76
2023/03/10 07:40:23;;;;;;;;;;;;;;;4.33;100.00;98657.97;5054061;28;19920;-76
2023/03/10 07:42:49;;;;;;;;;;;;;;;4.28;100.00;98646.91;5057542;28;20292;-76
2023/03/10 07:45:14;;;;;;;;;;;;;;;4.17;100.00;98651.31;5060778;28;19921;-76
2023/03/10 07:47:40;;;;;;;;;;;;;;;3.95;100.00;98651.50;5063584;28;20334;-76
2023/03/10 07:50:05;;;;;;;;;;;;;;;4.06;100.00;98654.09;5042904;28;19928;-77
2023/03/10 07:52:30;;;;;;;;;;;;;;;4.14;100.00;98661.38;5061999;28;19931;-76
2023/03/10 07:54:56;;;;;;;;;;;;;;;4.25;100.00;98655.97;5059436;28;19920;-77
2023/03/10 07:57:21;;;;;;;;;;;;;;;4.23;100.00;98651.78;5056078;28;20370;-77
2023/03/10 07:59:46;;;;;;;;;;;;;;;4.21;100.00;98662.53;5060285;28;20413;-76
2023/03/10 08:02:12;;;;;;;;;;;;;;;4.11;100.00;98669.63;5046157;28;19920;-77
2023/03/10 08:04:37;;;;;;;;;;;;;;;4.16;100.00;98670.88;5065204;28;19928;-77
2023/03/10 08:07:02;;;;;;;;;;;;;;;4.18;100.00;98671.59;5062144;28;19927;-76
2023/03/10 08:09:28;;;;;;;;;;;;;;;4.12;100.00;98676.59;5059165;28;19965;-76
2023/03/10 08:11:54;;;;;;;;;;;;;;;4.15;100.00;98682.47;5034193;28;20047;-76
2023/03/10 08:14:22;;;;;;;;;;;;;;;4.22;100.00;98676.66;5052685;28;19921;-77
2023/03/10 08:16:48;;;;;;;;;;;;;;;4.24;100.00;98680.03;5056544;28;19925;-77
2023/03/10 08:19:13;;;;;;;;;;;;;;;4.29;100.00;98675.97;5056402;28;20404;-77
2023/03/10 08:21:38;;;;;;;;;;;;;;;4.30;100.00;98663.56;5051467;28;20492;-76
2023/03/10 08:24:04;;;;;;;;;;;;;;;4.16;100.00;98668.22;5057428;28;20033;-77
2023/03/10 08:26:29;;;;;;;;;;;;;;;4.18;100.00;98676.91;5058565;28;19920;-77
2023/03/10 08:28:54;;;;;;;;;;;;;;;4.17;100.00;98671.75;5060459;28;20478;-77
2023/03/10 08:31:20;;;;;;;;;;;;;;;4.19;100.00;98673.28;5055871;28;19964;-77
2023/03/10 08:33:45;;;;;;;;;;;;;;;4.22;100.00;98672.19;5057893;28;20058;-76
2023/03/10 08:36:15;;;;;;;;;;;;;;;4.22;100.00;98666.03;5059115;28;20295;-77
2023/03/10 08:38:40;;;;;;;;;;;;;;;4.31;100.00;98674.03;5056498;28;20018;-77
2023/03/10 08:41:11;;;;;;;;;;;;;;;4.39;100.00;98673.38;5049629;28;19920;-77
2023/03/10 08:43:37;;;;;;;;;;;;;;;4.40;100.00;98674.22;5056939;28;20018;-77
2023/03/10 08:46:03;;;;;;;;;;;;;;;4.45;100.00;98682.66;5053531;28;19981;-76
2023/03/10 08:48:28;;;;;;;;;;;;;;;4.42;100.00;98672.28;5042136;28;19924;-76
2023/03/10 08:50:53;;;;;;;;;;;;;;;4.31;100.00;98671.38;5050864;28;20310;-77
2023/03/10 08:53:18;;;;;;;;;;;;;;;4.38;100.00;98666.38;5056144;28;19928;-77
2023/03/10 08:55:43;;;;;;;;;;;;;;;4.49;100.00;98668.94;5056987;28;19966;-76
2023/03/10 08:58:09;;;;;;;;;;;;;;;4.51;100.00;98668.81;5055198;28;19931;-77
2023/03/10 09:00:34;;;;;;;;;;;;;;;4.44;100.00;98673.81;5054675;28;19927;-77
2023/03/10 09:02:59;;;;;;;;;;;;;;;4.59;100.00;98676.94;5055793;28;19920;-77
2023/03/10 09:05:26;;;;;;;;;;;;;;;4.63;100.00;98672.22;5042408;28;19920;-77
2023/03/10 09:07:51;;;;;;;;;;;;;;;4.76;100.00;98672.00;5055506;28;19952;-76
2023/03/10 09:10:17;;;;;;;;;;;;;;;4.73;100.00;98670.44;5052118;28;20051;-77
2023/03/10 09:12:42;;;;;;;;;;;;;;;4.83;100.00;98669.63;5053351;28;19920;-77
2023/03/10 09:15:07;;;;;;;;;;;;;;;5.03;100.00;98668.69;5056051;28;19931;-77
2023/03/10 09:17:32;;;;;;;;;;;;;;;5.19;100.00;98670.81;5042159;28;19943;-77
2023/03/10 09:19:58;;;;;;;;;;;;;;;5.31;100.00;98663.53;5050678;28;20379;-77
2023/03/10 09:22:23;;;;;;;;;;;;;;;5.49;100.00;98662.81;5053979;28;19985;-77
2023/03/10 09:24:48;;;;;;;;;;;;;;;5.49;100.00;98661.00;5049043;28;19920;-77
2023/03/10 09:27:13;;;;;;;;;;;;;;;5.59;100.00;98669.00;5051725;28;19920;-78
2023/03/10 09:29:39;;;;;;;;;;;;;;;5.58;100.00;98669.13;5048874;28;19921;-77
2023/03/10 09:32:04;;;;;;;;;;;;;;;5.47;100.00;98670.09;5050827;28;19920;-77
2023/03/10 09:34:29;;;;;;;;;;;;;;;5.41;100.00;98668.84;5050795;28;19970;-77
2023/03/10 09:36:54;;;;;;;;;;;;;;;5.40;100.00;98669.81;5033059;28;19963;-77
2023/03/10 09:39:20;;;;;;;;;;;;;;;5.33;100.00;98672.22;5050028;28;19924;-77
2023/03/10 09:41:45;;;;;;;;;;;;;;;5.30;100.00;98669.81;5035884;28;20346;-77
2023/03/10 09:44:22;;;;;;;;;;;;;;;5.35;100.00;98666.75;5052897;28;20251;-77
2023/03/10 09:46:55;;;;;;;;;;;;;;;5.39;100.00;98655.69;5049843;28;19962;-77
2023/03/10 09:49:27;;;;;;;;;;;;;;;5.41;100.00;98658.22;5035427;28;19932;-77
2023/03/10 09:51:52;;;;;;;;;;;;;;;5.49;100.00;98657.50;5055776;28;20366;-77
2023/03/10 09:54:17;;;;;;;;;;;;;;;5.49;100.00;98658.34;5052316;28;19927;-77
2023/03/10 09:56:43;;;;;;;;;;;;;;;5.58;100.00;98656.66;5044602;28;19927;-77
2023/03/10 09:59:20;;;;;;;;;;;;;;;5.56;100.00;98663.94;5034083;28;19971;-77
2023/03/10 10:01:46;;;;;;;;;;;;;;;5.59;100.00;98657.50;5032253;28;19921;-77
2023/03/10 10:04:13;;;;;;;;;;;;;;;5.71;100.00;98654.53;5048164;28;20353;-77
2023/03/10 10:06:41;;;;;;;;;;;;;;;5.76;100.00;98662.13;5038725;28;19920;-77
2023/03/10 10:09:26;;;;;;;;;;;;;;;5.83;100.00;98663.22;5036191;28;20275;-77
2023/03/10 10:11:51;;;;;;;;;;;;;;;5.94;100.00;98664.91;5053307;28;20373;-77
2023/03/10 10:14:20;;;;;;;;;;;;;;;5.90;100.00;98667.97;5056590;28;19925;-77
2023/03/10 10:16:53;;;;;;;;;;;;;;;5.94;100.00;98669.38;5046335;28;19952;-77
2023/03/10 10:19:18;;;;;;;;;;;;;;;6.24;100.00;98670.16;5048160;28;20293;-77
2023/03/10 10:22:02;;;;;;;;;;;;;;;6.51;100.00;98669.34;5048641;28;19921;-77
2023/03/10 10:24:28;;;;;;;;;;;;;;;6.60;100.00;98651.66;5052605;28;19967;-77
2023/03/10 10:26:53;;;;;;;;;;;;;;;6.82;100.00;98674.41;5049098;28;20457;-78
2023/03/10 10:29:20;;;;;;;;;;;;;;;6.88;100.00;98673.81;5031843;28;19920;-77
2023/03/10 10:32:01;;;;;;;;;;;;;;;6.84;100.00;98672.44;5050053;28;19931;-77
2023/03/10 10:34:26;;;;;;;;;;;;;;;6.77;100.00;98679.34;5054019;28;19947;-77
2023/03/10 10:36:53;;;;;;;;;;;;;;;6.78;100.00;98674.88;5049269;28;20363;-77
2023/03/10 10:39:25;;;;;;;;;;;;;;;6.59;100.00;98672.13;5054178;28;19920;-77
2023/03/10 10:41:50;;;;;;;;;;;;;;;6.52;100.00;98680.88;5050581;28;19927;-77
2023/03/10 10:44:16;;;;;;;;;;;;;;;6.49;100.00;98682.00;5036076;28;19924;-77
2023/03/10 10:46:52;;;;;;;;;;;;;;;6.47;100.00;98688.47;5032962;28;19932;-77
2023/03/10 10:49:24;;;;;;;;;;;;;;;6.48;100.00;98692.81;5051338;28;19920;-77
2023/03/10 10:52:00;;;;;;;;;;;;;;;6.53;100.00;98690.56;5048980;28;19924;-77
2023/03/10 10:54:27;;;;;;;;;;;;;;;6.73;100.00;98689.47;5051214;28;19935;-77
2023/03/10 10:56:56;;;;;;;;;;;;;;;6.88;100.00;98689.00;5033756;28;19920;-77
2023/03/10 10:59:23;;;;;;;;;;;;;;;7.15;100.00;98687.31;5036627;28;19921;-77
2023/03/10 11:01:55;;;;;;;;;;;;;;;7.36;100.00;98687.00;5050206;28;19931;-77
2023/03/10 11:04:20;;;;;;;;;;;;;;;7.45;100.00;98686.09;5054030;28;19925;-77
2023/03/10 11:06:46;;;;;;;;;;;;;;;7.37;100.00;98678.00;5058702;28;19982;-77
2023/03/10 11:09:11;;;;;;;;;;;;;;;7.31;100.00;98674.09;5042853;28;20686;-77
2023/03/10 11:12:03;;;;;;;;;;;;;;;7.25;100.00;98679.22;5052573;28;21008;-77
2023/03/10 11:14:34;;;;;;;;;;;;;;;7.15;100.00;98664.09;5054692;28;19928;-77
2023/03/10 11:17:02;;;;;;;;;;;;;;;7.27;100.00;98685.25;5044436;28;19920;-77
2023/03/10 11:19:27;;;;;;;;;;;;;;;7.06;100.00;98683.69;5058720;28;19967;-78
2023/03/10 11:21:53;;;;;;;;;;;;;;;6.92;100.00;98679.69;5050719;28;19978;-77
2023/03/10 11:24:19;;;;;;;;;;;;;;;6.99;100.00;98679.94;5056011;28;19924;-77
2023/03/10 11:26:47;;;;;;;;;;;;;;;6.97;100.00;98674.75;5053411;28;20629;-77
2023/03/10 11:29:22;;;;;;;;;;;;;;;7.11;100.00;98675.25;5040879;28;19921;-77
2023/03/10 11:32:06;;;;;;;;;;;;;;;7.24;100.00;98667.69;5052957;28;19972;-77
2023/03/10 11:34:33;;;;;;;;;;;;;;;7.41;100.00;98657.19;5053559;28;19920;-78
2023/03/10 11:37:01;;;;;;;;;;;;;;;7.53;100.00;98647.94;5053456;28;21821;-77
2023/03/10 11:39:26;;;;;;;;;;;;;;;7.54;100.00;98648.78;5054887;28;20002;-77
2023/03/10 11:41:54;;;;;;;;;;;;;;;7.49;100.00;98652.75;5052152;28;20015;-78
2023/03/10 11:44:31;;;;;;;;;;;;;;;7.39;100.00;98643.16;5052770;28;19932;-77
2023/03/10 11:46:56;;;;;;;;;;;;;;;7.48;100.00;98647.56;5055420;28;19958;-77
2023/03/10 11:49:26;;;;;;;;;;;;;;;7.51;100.00;98649.91;5056443;28;19924;-77
2023/03/10 11:51:51;;;;;;;;;;;;;;;7.54;100.00;98635.44;5051344;28;19956;-78
2023/03/10 11:54:24;;;;;;;;;;;;;;;7.61;100.00;98628.47;5052924;28;20453;-77
2023/03/10 11:56:49;;;;;;;;;;;;;;;7.59;100.00;98633.13;5053507;28;19928;-77
2023/03/10 11:59:16;;;;;;;;;;;;;;;7.67;100.00;98619.00;5052404;28;20357;-77
2023/03/10 12:02:02;;;;;;;;;;;;;;;7.63;100.00;98616.66;5047848;28;19971;-77
2023/03/10 12:04:43;;;;;;;;;;;;;;;7.53;100.00;98620.41;5053776;28;19926;-77
2023/03/10 12:07:08;;;;;;;;;;;;;;;7.57;100.00;98611.06;5053003;28;19920;-77
2023/03/10 12:09:55;;;;;;;;;;;;;;;7.48;100.00;98615.50;5056536;28;19951;-77
2023/03/10 12:12:22;;;;;;;;;;;;;;;7.38;100.00;98614.78;5054532;28;19924;-78
2023/03/10 12:14:47;;;;;;;;;;;;;;;7.31;100.00;98617.19;5052657;28;19924;-78
2023/03/10 12:17:13;;;;;;;;;;;;;;;7.23;100.00;98611.81;5037448;28;19947;-78
2023/03/10 12:19:57;;;;;;;;;;;;;;;7.16;100.00;98614.22;5050542;28;19920;-78
2023/03/10 12:22:23;;;;;;;;;;;;;;;6.97;100.00;98612.56;5048956;28;19920;-79
2023/03/10 12:24:49;;;;;;;;;;;;;;;6.92;100.00;98612.16;5051874;28;19920;-78
2023/03/10 12:27:14;;;;;;;;;;;;;;;6.71;100.00;98614.09;5054886;28;20310;-78
2023/03/10 12:29:41;;;;;;;;;;;;;;;6.43;100.00;98602.63;5055327;28;19920;-77
2023/03/10 12:32:26;;;;;;;;;;;;;;;6.43;100.00;98602.63;5039363;28;19927;-78
2023/03/10 12:35:10;;;;;;;;;;;;;;;6.34;100.00;98609.69;5054506;28;20558;-78
2023/03/10 12:37:35;;;;;;;;;;;;;;;6.35;100.00;98595.38;5055093;28;20370;-78
2023/03/10 12:40:00;;;;;;;;;;;;;;;6.07;100.00;98602.47;5046543;28;19989;-78
2023/03/10 12:42:25;;;;;;;;;;;;;;;6.03;100.00;98595.75;5054819;28;19958;-77
2023/03/10 12:44:52;;;;;;;;;;;;;;;5.85;100.00;98591.16;5051336;28;19921;-78